Time;durP1;ratioP1;P1;durP2;ratioP2;P2;SDS_P1;SDS_P2;PMS_P1;PMS_P2;Temp;Humidity;BMP_temperature;BMP_pressure;BME280_temperature;BME280_humidity;BME280_pressure;Samples;Min_cycle;Max_cycle;Signal;HPM_P1;HPM_P2
2024/02/14 00:03:26;;;;;;;68.43;30.77;;;;;;;2.92;100.00;101137.44;4977048;57;1140920;-79
2024/02/14 00:08:33;;;;;;;83.10;36.10;;;;;;;2.92;100.00;101140.51;4994011;57;1140830;-77
2024/02/14 00:13:39;;;;;;;107.17;49.93;;;;;;;2.91;100.00;101142.72;5000191;57;1140999;-77
2024/02/14 00:18:44;;;;;;;79.23;39.67;;;;;;;2.88;100.00;101135.88;5020790;57;1143128;-78
2024/02/14 00:23:50;;;;;;;88.10;38.07;;;;;;;2.82;100.00;101137.38;5028514;57;1141042;-79
2024/02/14 00:28:56;;;;;;;92.53;40.97;;;;;;;2.78;100.00;101138.39;4983820;57;1140703;-80
2024/02/14 00:34:01;;;;;;;56.53;22.03;;;;;;;2.76;100.00;101134.98;4972940;57;1140697;-78
2024/02/14 00:39:09;;;;;;;40.00;16.87;;;;;;;2.77;100.00;101134.08;4923147;58;1141338;-79
2024/02/14 00:44:16;;;;;;;65.23;29.03;;;;;;;2.79;100.00;101135.73;4789443;58;1140829;-78
2024/02/14 00:49:22;;;;;;;68.00;29.53;;;;;;;2.82;100.00;101148.69;4855113;58;1141234;-78
2024/02/14 00:54:27;;;;;;;37.73;17.43;;;;;;;2.76;100.00;101154.56;4851989;59;1141117;-79
2024/02/14 00:59:33;;;;;;;33.25;14.90;;;;;;;2.61;100.00;101163.79;4932568;58;1140737;-79
2024/02/14 01:04:38;;;;;;;31.03;13.20;;;;;;;2.47;100.00;101166.88;4901997;58;1141016;-76
2024/02/14 01:09:44;;;;;;;29.67;14.00;;;;;;;2.36;100.00;101163.78;4958190;57;1141011;-77
2024/02/14 01:14:50;;;;;;;28.93;12.87;;;;;;;2.29;100.00;101157.05;4970006;57;1141748;-78
2024/02/14 01:19:55;;;;;;;29.37;13.67;;;;;;;2.31;100.00;101159.16;4954651;57;1140820;-75
2024/02/14 01:25:01;;;;;;;27.53;12.87;;;;;;;2.35;100.00;101160.77;4951863;57;1141426;-79
2024/02/14 01:30:08;;;;;;;24.03;12.50;;;;;;;2.37;100.00;101159.41;4990845;56;1140816;-79
2024/02/14 01:35:13;;;;;;;32.07;12.97;;;;;;;2.24;100.00;101150.30;5010003;56;1141867;-79
2024/02/14 01:40:19;;;;;;;24.40;12.13;;;;;;;2.27;100.00;101154.11;4955239;57;1140876;-76
2024/02/14 01:45:24;;;;;;;30.30;14.97;;;;;;;2.19;100.00;101146.97;4960123;57;1141086;-79
2024/02/14 01:50:31;;;;;;;34.17;14.50;;;;;;;2.19;100.00;101146.97;4947509;57;1141109;-77
2024/02/14 01:55:37;;;;;;;37.27;16.13;;;;;;;2.14;100.00;101152.33;4918381;57;1141189;-77
2024/02/14 02:00:43;;;;;;;28.50;12.90;;;;;;;2.07;100.00;101149.54;4979048;57;1141054;-80
2024/02/14 02:05:49;;;;;;;35.93;15.17;;;;;;;1.97;100.00;101152.91;4890395;57;1141128;-80
2024/02/14 02:10:55;;;;;;;35.83;16.47;;;;;;;1.88;100.00;101148.41;4930961;56;1140877;-79
2024/02/14 02:16:04;;;;;;;35.50;16.77;;;;;;;1.89;100.00;101155.34;4893238;56;1140810;-80
2024/02/14 02:21:08;;;;;;;44.17;19.80;;;;;;;1.96;100.00;101147.73;4805268;58;1141072;-78
2024/02/14 02:26:14;;;;;;;45.00;20.07;;;;;;;2.05;100.00;101152.20;4764827;59;1140836;-76
2024/02/14 02:31:20;;;;;;;46.28;19.25;;;;;;;2.05;100.00;101154.80;4778291;59;1141098;-77
2024/02/14 02:36:29;;;;;;;50.93;21.63;;;;;;;2.06;100.00;101159.13;4831451;59;1141389;-77
2024/02/14 02:41:33;;;;;;;57.57;23.17;;;;;;;2.10;100.00;101149.00;4912655;58;1141073;-76
2024/02/14 02:46:39;;;;;;;60.67;24.20;;;;;;;2.14;100.00;101160.16;4881268;58;1140768;-78
2024/02/14 02:51:45;;;;;;;42.27;19.63;;;;;;;2.09;100.00;101162.94;4888815;58;1141076;-79
2024/02/14 02:56:51;;;;;;;47.77;20.60;;;;;;;2.03;100.00;101154.45;4812816;59;1140991;-80
2024/02/14 03:01:57;;;;;;;59.47;21.73;;;;;;;2.02;100.00;101159.26;4877559;57;1140706;-79
2024/02/14 03:07:06;;;;;;;54.37;22.93;;;;;;;2.06;100.00;101154.35;4926587;58;1140999;-79
2024/02/14 03:12:15;;;;;;;50.58;19.62;;;;;;;2.09;100.00;101159.48;4856231;58;1141969;-80
2024/02/14 03:17:19;;;;;;;40.90;19.07;;;;;;;2.06;100.00;101164.79;4854969;58;1140722;-77
2024/02/14 03:22:24;;;;;;;37.08;18.50;;;;;;;2.03;100.00;101160.97;4887061;59;1140969;-79
2024/02/14 03:27:31;;;;;;;37.80;18.20;;;;;;;1.98;100.00;101168.11;4903634;58;1141356;-77
2024/02/14 03:32:36;;;;;;;44.77;20.90;;;;;;;1.95;100.00;101172.11;4927542;58;1141054;-79
2024/02/14 03:37:52;;;;;;;40.90;17.83;;;;;;;1.88;100.00;101170.58;4892620;58;1141010;-78
2024/02/14 03:42:57;;;;;;;36.63;16.37;;;;;;;1.81;100.00;101183.43;4885516;58;1141125;-78
2024/02/14 03:48:04;;;;;;;52.23;21.87;;;;;;;1.69;100.00;101185.94;4802480;59;1140741;-80
2024/02/14 03:53:14;;;;;;;43.90;20.03;;;;;;;1.56;100.00;101180.24;4888672;57;1140904;-79
2024/02/14 03:58:25;;;;;;;41.98;18.23;;;;;;;1.50;100.00;101179.59;4770575;59;1141019;-80
2024/02/14 04:03:28;;;;;;;43.17;19.27;;;;;;;1.47;100.00;101185.75;4800288;59;1141019;-76
2024/02/14 04:08:35;;;;;;;43.27;19.13;;;;;;;1.38;100.00;101185.55;4807885;59;1141658;-77
2024/02/14 04:13:40;;;;;;;46.20;20.30;;;;;;;1.39;100.00;101178.58;4789172;59;1140520;-79
2024/02/14 04:18:46;;;;;;;51.93;21.20;;;;;;;1.40;100.00;101173.33;4858643;58;1140646;-77
2024/02/14 04:23:52;;;;;;;45.93;18.77;;;;;;;1.37;100.00;101172.59;4850585;58;1140636;-77
2024/02/14 04:28:57;;;;;;;35.33;17.53;;;;;;;1.33;100.00;101173.57;4824921;59;1141019;-77
2024/02/14 04:34:03;;;;;;;37.73;16.60;;;;;;;1.27;100.00;101175.03;4817372;58;1141090;-77
2024/02/14 04:39:09;;;;;;;41.03;19.47;;;;;;;1.20;100.00;101163.10;4859109;58;1259360;-78
2024/02/14 04:44:14;;;;;;;41.68;21.02;;;;;;;1.15;100.00;101166.27;4879547;57;1145934;-77
2024/02/14 04:49:20;;;;;;;41.95;18.40;;;;;;;1.08;100.00;101166.03;4894339;58;1141213;-76
2024/02/14 04:54:26;;;;;;;41.45;20.80;;;;;;;1.02;100.00;101168.38;4982196;57;1141021;-76
2024/02/14 04:59:32;;;;;;;60.20;28.20;;;;;;;1.04;100.00;101174.41;4958140;57;1141205;-76
2024/02/14 05:04:39;;;;;;;58.53;28.73;;;;;;;0.99;100.00;101172.36;4952721;57;1140929;-76
2024/02/14 05:09:44;;;;;;;51.37;23.93;;;;;;;0.95;100.00;101179.40;4992016;56;1141033;-77
2024/02/14 05:14:50;;;;;;;44.57;20.33;;;;;;;0.89;100.00;101173.52;4925657;57;1140752;-77
2024/02/14 05:19:56;;;;;;;37.83;20.33;;;;;;;0.95;100.00;101179.84;4923709;57;1141458;-80
2024/02/14 05:25:02;;;;;;;46.63;20.17;;;;;;;0.92;100.00;101172.97;4991808;56;1140990;-77
2024/02/14 05:30:11;;;;;;;38.83;18.90;;;;;;;0.95;100.00;101172.03;4946362;58;1140848;-76
2024/02/14 05:35:17;;;;;;;38.47;18.77;;;;;;;0.90;100.00;101168.73;4873888;58;1140902;-78
2024/02/14 05:40:24;;;;;;;53.55;19.85;;;;;;;0.82;100.00;101174.57;4832173;58;1141051;-76
2024/02/14 05:45:29;;;;;;;52.05;20.77;;;;;;;0.80;100.00;101180.27;4826712;58;1140816;-77
2024/02/14 05:50:36;;;;;;;37.23;17.67;;;;;;;0.75;100.00;101186.91;4800483;59;1141608;-77
2024/02/14 05:55:41;;;;;;;53.35;28.90;;;;;;;0.73;100.00;101188.70;4864559;58;1141168;-77
2024/02/14 06:00:47;;;;;;;56.67;23.20;;;;;;;0.69;100.00;101183.16;4800630;58;1141333;-77
2024/02/14 06:05:53;;;;;;;43.77;19.70;;;;;;;0.61;100.00;101179.92;4935885;58;1141061;-78
2024/02/14 06:10:59;;;;;;;45.23;19.97;;;;;;;0.56;100.00;101181.78;4947153;57;1140627;-76
2024/02/14 06:16:05;;;;;;;181.30;51.00;;;;;;;0.56;100.00;101181.33;4960736;57;1140493;-77
2024/02/14 06:21:12;;;;;;;257.72;62.84;;;;;;;0.60;100.00;101183.41;4994937;57;1142764;-78
2024/02/14 06:26:17;;;;;;;155.77;50.13;;;;;;;0.69;100.00;101185.32;4940115;57;1150953;-77
2024/02/14 06:31:25;;;;;;;90.50;33.58;;;;;;;0.79;100.00;101185.06;4972385;57;1142985;-77
2024/02/14 06:36:30;;;;;;;62.93;24.40;;;;;;;0.82;100.00;101185.84;5028246;57;1140982;-78
2024/02/14 06:41:36;;;;;;;231.28;84.72;;;;;;;0.86;100.00;101182.72;5007922;57;1140822;-77
2024/02/14 06:46:42;;;;;;;140.00;76.30;;;;;;;0.92;100.00;101193.80;4977909;56;1143377;-77
2024/02/14 06:51:48;;;;;;;83.30;38.43;;;;;;;1.03;100.00;101202.20;4939722;57;1142952;-77
2024/02/14 06:56:53;;;;;;;47.30;23.43;;;;;;;1.08;100.00;101190.77;4950413;57;1140803;-77
2024/02/14 07:01:59;;;;;;;38.30;18.97;;;;;;;1.14;100.00;101197.13;4846366;58;1140948;-78
2024/02/14 07:07:05;;;;;;;70.93;30.07;;;;;;;1.30;100.00;101191.44;4920661;57;1140942;-77
2024/02/14 07:12:10;;;;;;;40.20;20.17;;;;;;;1.42;100.00;101190.23;4962978;58;1140982;-79
2024/02/14 07:17:16;;;;;;;40.20;18.53;;;;;;;1.46;100.00;101184.48;4944347;57;1140872;-81
2024/02/14 07:22:21;;;;;;;38.85;19.52;;;;;;;1.46;100.00;101191.00;4948713;57;1140748;-79
2024/02/14 07:27:27;;;;;;;34.85;17.37;;;;;;;1.42;100.00;101174.59;4941904;57;1140936;-79
2024/02/14 07:32:32;;;;;;;38.73;17.03;;;;;;;1.43;100.00;101176.30;4963918;57;1141086;-76
2024/02/14 07:37:38;;;;;;;34.05;16.70;;;;;;;1.52;100.00;101179.10;4792511;59;1140853;-77
2024/02/14 07:42:44;;;;;;;37.40;16.43;;;;;;;1.57;100.00;101188.92;4919606;57;1140969;-77
2024/02/14 07:47:51;;;;;;;36.90;18.03;;;;;;;1.62;100.00;101186.59;4916743;58;1140885;-80
2024/02/14 07:52:58;;;;;;;50.97;19.77;;;;;;;1.70;100.00;101181.12;4887163;58;1140864;-79
2024/02/14 07:58:03;;;;;;;49.30;23.83;;;;;;;1.89;100.00;101176.20;4862999;58;1141173;-79
2024/02/14 08:03:09;;;;;;;50.07;23.30;;;;;;;2.01;100.00;101166.23;4892696;59;1141011;-79
2024/02/14 08:08:15;;;;;;;70.23;36.07;;;;;;;2.11;100.00;101174.19;4929796;58;1141064;-79
2024/02/14 08:13:20;;;;;;;40.97;20.40;;;;;;;2.23;100.00;101170.77;4939252;57;1141173;-78
2024/02/14 08:18:32;;;;;;;29.07;14.07;;;;;;;2.32;100.00;101172.61;4960629;56;1140981;-79
2024/02/14 08:23:34;;;;;;;41.33;23.53;;;;;;;2.38;100.00;101176.78;4982418;57;1141003;-79
2024/02/14 08:28:41;;;;;;;71.27;32.30;;;;;;;2.44;100.00;101161.75;4926346;57;1140799;-76
2024/02/14 08:33:47;;;;;;;35.40;19.43;;;;;;;2.52;100.00;101158.05;5019127;56;1140868;-78
2024/02/14 08:38:54;;;;;;;32.33;16.13;;;;;;;2.61;100.00;101151.19;4927516;58;1140982;-79
2024/02/14 08:44:04;;;;;;;33.57;15.50;;;;;;;2.77;100.00;101161.05;4856781;58;1141242;-82
2024/02/14 08:49:10;;;;;;;40.70;21.50;;;;;;;2.91;100.00;101160.55;4899272;58;1140841;-80
2024/02/14 08:54:16;;;;;;;29.10;15.17;;;;;;;3.06;100.00;101158.70;4914211;57;1140815;-81
2024/02/14 08:59:21;;;;;;;30.72;17.73;;;;;;;3.19;100.00;101155.20;4904581;58;1140834;-77
2024/02/14 09:04:27;;;;;;;30.17;15.83;;;;;;;3.37;100.00;101145.80;4848873;59;1141868;-77
2024/02/14 09:09:33;;;;;;;32.23;15.07;;;;;;;3.56;100.00;101148.56;4902739;58;1140944;-78
2024/02/14 09:14:38;;;;;;;254.97;93.43;;;;;;;3.78;100.00;101145.06;4828537;59;1143306;-77
2024/02/14 09:19:44;;;;;;;103.70;52.63;;;;;;;3.97;100.00;101139.96;4887140;58;1143108;-79
2024/02/14 09:24:52;;;;;;;20.23;12.47;;;;;;;4.11;100.00;101137.63;4873168;58;1143311;-78
2024/02/14 09:29:57;;;;;;;22.87;11.20;;;;;;;4.23;100.00;101141.05;4929196;58;1141069;-78
2024/02/14 09:35:06;;;;;;;22.20;9.13;;;;;;;4.34;100.00;101143.20;4859819;59;1141589;-77
2024/02/14 09:40:14;;;;;;;35.67;14.37;;;;;;;4.48;100.00;101137.38;4868218;58;1140816;-78
2024/02/14 09:45:20;;;;;;;26.27;10.93;;;;;;;4.59;100.00;101136.00;4866027;58;1148242;-78
2024/02/14 09:50:28;;;;;;;33.63;13.15;;;;;;;4.66;100.00;101130.52;4882423;57;1141292;-80
2024/02/14 09:55:33;;;;;;;22.77;11.95;;;;;;;4.71;100.00;101128.09;4926257;57;1140843;-77
2024/02/14 10:00:40;;;;;;;18.43;9.13;;;;;;;4.76;100.00;101126.10;4955412;57;1141011;-78
2024/02/14 10:05:46;;;;;;;14.97;7.23;;;;;;;4.83;100.00;101128.01;4937792;57;1138682;-79
2024/02/14 10:10:52;;;;;;;14.43;7.67;;;;;;;4.93;100.00;101129.30;4961205;57;1139231;-77
2024/02/14 10:15:59;;;;;;;15.87;7.93;;;;;;;5.07;100.00;101131.30;4972110;57;1138952;-78
2024/02/14 10:21:04;;;;;;;17.50;7.27;;;;;;;5.19;100.00;101135.55;4839951;58;1141049;-80
2024/02/14 10:26:11;;;;;;;96.50;33.53;;;;;;;5.27;100.00;101133.88;4850667;57;1138971;-81
2024/02/14 10:31:16;;;;;;;14.67;7.20;;;;;;;5.33;100.00;101139.31;4923556;58;1142989;-79
2024/02/14 10:36:23;;;;;;;13.70;7.75;;;;;;;5.33;100.00;101130.98;4828922;58;1138777;-79
2024/02/14 10:41:35;;;;;;;23.85;10.72;;;;;;;5.33;100.00;101121.80;4867569;58;1138837;-80
2024/02/14 10:46:41;;;;;;;18.95;9.15;;;;;;;5.37;100.00;101115.92;4912585;58;1143486;-77
2024/02/14 10:51:48;;;;;;;20.87;9.77;;;;;;;5.38;100.00;101107.14;4903486;58;1138796;-74
2024/02/14 10:56:58;;;;;;;20.67;10.50;;;;;;;5.37;100.00;101102.81;4896094;58;1138743;-75
2024/02/14 11:02:04;;;;;;;27.67;12.20;;;;;;;5.38;100.00;101096.19;4938602;58;1140865;-77
2024/02/14 11:07:15;;;;;;;61.37;19.23;;;;;;;5.40;100.00;101088.25;4937705;58;1143244;-75
2024/02/14 11:12:24;;;;;;;22.93;9.03;;;;;;;5.43;100.00;101084.17;4918632;58;1141448;-76
2024/02/14 11:17:30;;;;;;;42.98;17.10;;;;;;;5.41;100.00;101081.63;4919843;58;1138871;-76
2024/02/14 11:22:36;;;;;;;28.07;12.87;;;;;;;5.46;100.00;101081.41;4921808;57;1141465;-76
2024/02/14 11:27:50;;;;;;;26.83;14.37;;;;;;;5.49;100.00;101073.41;4909817;58;1141053;-77
2024/02/14 11:32:56;;;;;;;22.95;10.30;;;;;;;5.50;100.00;101071.98;4901918;58;1141354;-76
2024/02/14 11:38:01;;;;;;;20.27;10.80;;;;;;;5.53;100.00;101065.75;4923447;58;1140631;-76
2024/02/14 11:43:20;;;;;;;24.00;11.07;;;;;;;5.52;100.00;101060.12;4897080;58;1143105;-75
2024/02/14 11:48:25;;;;;;;26.83;13.33;;;;;;;5.51;100.00;101062.34;4866514;58;1140773;-77
2024/02/14 11:53:31;;;;;;;33.73;14.87;;;;;;;5.49;100.00;101053.27;4844937;58;1140690;-77
2024/02/14 11:58:36;;;;;;;245.87;79.50;;;;;;;5.47;100.00;101052.95;4858986;59;1140562;-78
2024/02/14 12:03:42;;;;;;;81.03;31.63;;;;;;;5.50;100.00;101040.51;4776741;59;1143491;-80
2024/02/14 12:08:48;;;;;;;70.97;29.33;;;;;;;5.56;100.00;101033.66;4856550;59;1143151;-77
2024/02/14 12:13:53;;;;;;;29.10;15.70;;;;;;;5.64;100.00;101032.00;4834819;59;1140926;-79
2024/02/14 12:19:13;;;;;;;26.50;13.70;;;;;;;5.71;100.00;101028.59;4911694;56;1140623;-77
2024/02/14 12:24:18;;;;;;;31.20;13.67;;;;;;;5.79;100.00;101027.30;4844097;58;1140872;-78
2024/02/14 12:29:26;;;;;;;22.22;11.05;;;;;;;5.89;100.00;101016.75;4842908;59;1143727;-79
2024/02/14 12:34:33;;;;;;;159.27;40.95;;;;;;;5.97;100.00;101015.04;4817822;58;1142982;-76
2024/02/14 12:39:39;;;;;;;151.43;54.30;;;;;;;6.02;100.00;101007.78;4881632;58;1143318;-79
2024/02/14 12:44:44;;;;;;;254.33;100.20;;;;;;;6.05;100.00;101008.10;4962393;58;1142584;-79
2024/02/14 12:49:50;;;;;;;67.03;29.00;;;;;;;6.03;100.00;101008.64;4962625;58;1145299;-77
2024/02/14 12:54:56;;;;;;;93.27;39.47;;;;;;;6.02;100.00;101010.41;4979472;57;1143151;-78
2024/02/14 13:00:03;;;;;;;59.50;30.03;;;;;;;6.04;100.00;101012.97;4853709;58;1142723;-80
2024/02/14 13:05:09;;;;;;;59.35;30.75;;;;;;;6.03;100.00;101017.37;4823582;58;1143204;-80
2024/02/14 13:10:15;;;;;;;41.30;22.53;;;;;;;6.00;100.00;101008.33;4942775;57;1140839;-79
2024/02/14 13:15:21;;;;;;;31.90;18.70;;;;;;;5.95;100.00;101009.05;4949776;57;1141064;-80
2024/02/14 13:20:27;;;;;;;71.42;42.45;;;;;;;5.92;100.00;101005.25;4928440;57;1143310;-81
2024/02/14 13:25:33;;;;;;;67.03;36.90;;;;;;;5.89;100.00;101005.41;4953268;57;1143136;-81
2024/02/14 13:30:39;;;;;;;38.57;20.50;;;;;;;5.86;100.00;101003.74;4836165;58;1142800;-81
2024/02/14 13:35:45;;;;;;;35.03;18.80;;;;;;;5.86;100.00;100997.64;4817526;58;1142763;-82
2024/02/14 13:40:50;;;;;;;37.73;23.10;;;;;;;5.85;100.00;100986.30;4883842;59;1142904;-78
2024/02/14 13:45:56;;;;;;;42.57;20.37;;;;;;;5.85;100.00;100981.05;4892968;59;1142845;-79
2024/02/14 13:51:03;;;;;;;61.77;40.83;;;;;;;5.81;100.00;100976.87;4876761;58;1155096;-80
2024/02/14 13:56:08;;;;;;;52.97;30.50;;;;;;;5.83;100.00;100978.95;4925074;59;1229493;-79
2024/02/14 14:01:14;;;;;;;51.53;26.20;;;;;;;5.84;100.00;100974.09;4879798;58;1142970;-79
2024/02/14 14:06:20;;;;;;;77.57;36.43;;;;;;;5.87;100.00;100979.20;4834515;59;1142969;-82
2024/02/14 14:11:27;;;;;;;30.23;15.50;;;;;;;5.90;100.00;100987.41;4797973;59;1143515;-79
2024/02/14 14:16:33;;;;;;;33.33;15.57;;;;;;;5.91;100.00;100980.78;4922141;58;1143155;-79
2024/02/14 14:21:38;;;;;;;32.03;18.70;;;;;;;5.91;100.00;100978.16;4806751;58;1142913;-81
2024/02/14 14:26:45;;;;;;;30.67;16.13;;;;;;;5.90;100.00;100983.48;4788604;59;1186488;-78
2024/02/14 14:31:51;;;;;;;29.37;17.70;;;;;;;5.85;100.00;100987.61;4877925;58;1140872;-77
2024/02/14 14:36:56;;;;;;;29.93;15.27;;;;;;;5.86;100.00;100996.33;4825008;59;1143384;-80
2024/02/14 14:42:02;;;;;;;28.10;14.10;;;;;;;5.86;100.00;101000.27;4871476;58;1245165;-81
2024/02/14 14:47:08;;;;;;;29.07;15.87;;;;;;;5.87;100.00;100999.34;4877098;58;1215633;-79
2024/02/14 14:52:13;;;;;;;29.70;15.70;;;;;;;5.86;100.00;100995.02;4871277;59;1167795;-85
2024/02/14 14:57:19;;;;;;;37.90;18.37;;;;;;;5.85;100.00;100993.31;4837628;57;1233926;-79
2024/02/14 15:02:26;;;;;;;43.80;23.60;;;;;;;5.86;100.00;101004.20;4893008;58;1243834;-81
2024/02/14 15:07:31;;;;;;;37.93;20.00;;;;;;;5.85;100.00;101005.12;4826109;58;1241904;-81
2024/02/14 15:12:37;;;;;;;33.75;19.98;;;;;;;5.88;100.00;101000.61;4861476;58;1260526;-81
2024/02/14 15:17:43;;;;;;;39.97;24.63;;;;;;;5.88;100.00;101007.61;4851486;57;1226449;-83
2024/02/14 15:22:48;;;;;;;56.30;35.30;;;;;;;5.88;100.00;100999.30;4812761;58;1225829;-84
2024/02/14 15:27:57;;;;;;;40.37;21.07;;;;;;;5.90;100.00;101005.33;4860305;58;1247407;-84
2024/02/14 15:38:27;;;;;;;43.45;22.50;;;;;;;5.90;100.00;101004.02;4876772;57;1247387;-80
2024/02/14 15:43:33;;;;;;;38.55;19.77;;;;;;;5.87;100.00;100997.57;4858861;57;1142842;-81
2024/02/14 15:48:39;;;;;;;43.00;22.90;;;;;;;5.86;100.00;101001.58;4895376;57;1178550;-78
2024/02/14 15:53:45;;;;;;;64.83;32.20;;;;;;;5.85;100.00;101003.81;5031057;56;1256720;-83
2024/02/14 15:58:50;;;;;;;76.60;36.40;;;;;;;5.87;100.00;101012.47;5032086;56;1244912;-81
2024/02/14 16:03:56;;;;;;;91.23;41.03;;;;;;;5.88;100.00;101008.48;4876710;58;1143034;-81
2024/02/14 16:09:03;;;;;;;56.33;27.20;;;;;;;5.92;100.00;101008.73;4802254;59;1143246;-78
2024/02/14 16:14:08;;;;;;;74.00;34.37;;;;;;;5.91;100.00;101004.87;4933432;57;1143760;-84
2024/02/14 16:19:14;;;;;;;74.87;34.63;;;;;;;5.87;100.00;101009.84;4906846;57;1141485;-79
2024/02/14 16:24:19;;;;;;;39.33;20.00;;;;;;;5.85;100.00;101009.92;4852311;58;1142803;-85
2024/02/14 16:29:26;;;;;;;62.80;31.23;;;;;;;5.87;100.00;101008.53;4811619;58;1143209;-79
2024/02/14 16:34:31;;;;;;;49.23;22.25;;;;;;;5.90;100.00;101013.20;4749609;58;1143273;-81
2024/02/14 16:39:37;;;;;;;58.57;27.33;;;;;;;5.90;100.00;101010.58;4771852;59;1142961;-83
2024/02/14 16:44:43;;;;;;;47.60;22.83;;;;;;;5.93;100.00;101020.08;4761786;58;1164650;-83
2024/02/14 16:49:49;;;;;;;82.13;38.90;;;;;;;5.93;100.00;101017.00;5065920;56;1142694;-79
2024/02/14 16:54:54;;;;;;;57.43;24.43;;;;;;;5.90;100.00;101019.77;4979010;57;1140612;-84
2024/02/14 17:00:00;;;;;;;127.40;42.40;;;;;;;5.87;100.00;101018.56;5023834;56;1140689;-83
2024/02/14 17:05:07;;;;;;;34.67;16.57;;;;;;;5.86;100.00;101031.77;4999090;56;1145520;-86
2024/02/14 17:10:13;;;;;;;26.07;14.17;;;;;;;5.84;100.00;101019.17;4939724;57;1143037;-79
2024/02/14 17:15:18;;;;;;;29.13;16.33;;;;;;;5.84;100.00;101021.80;4970990;56;1143141;-80
2024/02/14 17:20:25;;;;;;;35.63;17.73;;;;;;;5.86;100.00;101026.52;5015404;57;1143068;-80
2024/02/14 17:25:30;;;;;;;31.15;17.20;;;;;;;5.89;100.00;101026.41;5006798;57;1142825;-80
2024/02/14 17:30:36;;;;;;;38.47;17.50;;;;;;;5.93;100.00;101024.02;4977598;57;1142857;-80
2024/02/14 17:35:42;;;;;;;42.73;19.95;;;;;;;5.95;100.00;101020.86;4984934;57;1143095;-80
2024/02/14 17:40:47;;;;;;;41.37;21.50;;;;;;;5.98;100.00;101024.16;5028478;57;1143517;-79
2024/02/14 17:45:53;;;;;;;42.17;21.27;;;;;;;5.98;100.00;101025.47;4974967;56;1143067;-79
2024/02/14 17:50:59;;;;;;;34.27;18.47;;;;;;;5.95;100.00;101025.64;4973544;56;1141020;-81
2024/02/14 17:56:05;;;;;;;28.80;14.97;;;;;;;5.94;100.00;101025.26;5004117;56;1143778;-82
2024/02/14 18:01:11;;;;;;;26.63;13.77;;;;;;;5.93;100.00;101032.75;4964472;57;1142691;-79
2024/02/14 18:06:16;;;;;;;34.33;17.70;;;;;;;5.93;100.00;101026.64;4979950;57;1142959;-80
2024/02/14 18:11:22;;;;;;;32.53;16.57;;;;;;;5.95;100.00;101024.33;4990637;57;1142900;-79
2024/02/14 18:16:27;;;;;;;70.67;27.27;;;;;;;5.95;100.00;101013.83;4976228;57;1146566;-82
2024/02/14 18:21:33;;;;;;;31.52;16.95;;;;;;;5.98;100.00;101016.28;4953551;58;1143044;-83
2024/02/14 18:26:39;;;;;;;52.57;22.57;;;;;;;5.99;100.00;101016.66;4848866;58;1143399;-85
2024/02/14 18:31:44;;;;;;;47.08;21.40;;;;;;;5.99;100.00;101015.35;4822167;58;1142891;-82
2024/02/14 18:36:50;;;;;;;97.73;39.20;;;;;;;5.99;100.00;101016.66;4773230;59;1143275;-85
2024/02/14 18:41:56;;;;;;;76.57;32.93;;;;;;;5.99;100.00;101019.29;4872665;57;1143258;-78
2024/02/14 18:47:02;;;;;;;41.93;22.27;;;;;;;5.98;100.00;101014.96;4865243;58;1143171;-76
2024/02/14 18:52:08;;;;;;;39.10;19.77;;;;;;;5.99;100.00;101013.19;4888109;58;1143095;-81
2024/02/14 18:57:14;;;;;;;60.87;34.80;;;;;;;5.98;100.00;101010.17;4859360;58;1142894;-78
2024/02/14 19:02:21;;;;;;;35.20;19.03;;;;;;;5.97;100.00;101005.84;4901203;58;1142773;-77
2024/02/14 19:07:26;;;;;;;59.07;27.33;;;;;;;5.98;100.00;100999.21;4907908;58;1143058;-78
2024/02/14 19:12:35;;;;;;;40.80;23.90;;;;;;;6.00;100.00;100996.05;5005853;57;1142887;-79
2024/02/14 19:17:41;;;;;;;34.33;18.48;;;;;;;6.02;100.00;100989.87;4937236;57;1143292;-76
2024/02/14 19:22:47;;;;;;;29.25;16.90;;;;;;;6.04;100.00;100989.34;4768750;59;1144044;-80
2024/02/14 19:27:53;;;;;;;26.40;16.83;;;;;;;6.04;100.00;100986.25;4802528;58;1143448;-78
2024/02/14 19:32:59;;;;;;;23.30;15.43;;;;;;;6.04;100.00;100987.55;4926830;58;1143217;-79
2024/02/14 19:38:04;;;;;;;26.60;15.73;;;;;;;6.05;100.00;100992.34;4803634;59;1142946;-78
2024/02/14 19:43:10;;;;;;;129.70;52.87;;;;;;;6.04;100.00;100993.27;4960867;57;1143137;-79
2024/02/14 19:48:16;;;;;;;136.30;48.77;;;;;;;6.02;100.00;100992.50;4968495;57;1145075;-79
2024/02/14 19:53:21;;;;;;;218.60;65.63;;;;;;;6.03;100.00;100998.14;4989677;56;1144877;-81
2024/02/14 19:58:27;;;;;;;75.03;26.97;;;;;;;6.02;100.00;100997.28;4980856;57;1145057;-79
2024/02/14 20:03:33;;;;;;;215.05;68.78;;;;;;;6.03;100.00;100992.89;5017627;57;1143225;-80
2024/02/14 20:08:40;;;;;;;95.97;34.87;;;;;;;6.04;100.00;100986.25;4885342;57;1145214;-79
2024/02/14 20:13:45;;;;;;;115.65;41.42;;;;;;;6.07;100.00;100982.62;4900592;57;1143052;-81
2024/02/14 20:18:51;;;;;;;190.37;73.87;;;;;;;6.08;100.00;100993.51;4906510;57;1144910;-79
2024/02/14 20:23:57;;;;;;;124.83;46.13;;;;;;;6.06;100.00;100990.96;4949165;58;1145494;-76
2024/02/14 20:29:05;;;;;;;37.13;19.67;;;;;;;6.09;100.00;100992.58;4850014;58;1145019;-80
2024/02/14 20:34:10;;;;;;;61.03;31.93;;;;;;;6.09;100.00;100998.69;4882317;57;1143215;-80
2024/02/14 20:39:16;;;;;;;71.17;30.53;;;;;;;6.07;100.00;100988.72;4937390;58;1143199;-80
2024/02/14 20:44:22;;;;;;;76.27;34.47;;;;;;;6.12;100.00;100995.88;5015026;57;1143164;-80
2024/02/14 20:49:27;;;;;;;36.00;22.90;;;;;;;6.14;100.00;100996.65;5075949;57;1142913;-80
2024/02/14 20:54:33;;;;;;;52.57;28.80;;;;;;;6.16;100.00;100998.73;4978279;57;1142923;-81
2024/02/14 20:59:39;;;;;;;46.67;25.50;;;;;;;6.19;100.00;101003.84;4921622;57;1142760;-80
2024/02/14 21:04:44;;;;;;;39.17;25.67;;;;;;;6.21;100.00;100999.82;4909384;58;1142882;-80
2024/02/14 21:09:50;;;;;;;35.33;20.00;;;;;;;6.21;100.00;101001.98;4928038;57;1143283;-80
2024/02/14 21:14:55;;;;;;;34.67;22.50;;;;;;;6.22;100.00;100994.95;4944808;57;1142828;-80
2024/02/14 21:20:01;;;;;;;38.37;24.93;;;;;;;6.22;100.00;100987.08;4953525;57;1143197;-80
2024/02/14 21:25:07;;;;;;;33.03;22.33;;;;;;;6.24;100.00;100984.76;5056511;57;1142750;-80
2024/02/14 21:30:13;;;;;;;29.57;19.60;;;;;;;6.26;100.00;100980.74;5008341;57;1143416;-80
2024/02/14 21:35:19;;;;;;;29.33;18.17;;;;;;;6.26;100.00;100980.25;4978329;57;1143450;-80
2024/02/14 21:40:25;;;;;;;33.70;20.57;;;;;;;6.30;100.00;100979.63;5000480;57;1142842;-80
2024/02/14 21:45:30;;;;;;;32.83;19.02;;;;;;;6.33;100.00;100978.16;5014657;57;1143144;-80
2024/02/14 21:50:36;;;;;;;29.50;17.90;;;;;;;6.36;100.00;100975.38;5003528;56;1142907;-80
2024/02/14 21:55:42;;;;;;;28.53;18.77;;;;;;;6.39;100.00;100971.75;4986204;56;1143348;-80
2024/02/14 22:00:48;;;;;;;27.70;16.33;;;;;;;6.43;100.00;100975.42;4884632;58;1143141;-80
2024/02/14 22:05:54;;;;;;;25.90;16.20;;;;;;;6.46;100.00;100978.36;4846775;59;1143092;-80
2024/02/14 22:10:59;;;;;;;31.63;18.30;;;;;;;6.46;100.00;100973.95;4920797;57;1142967;-80
2024/02/14 22:16:08;;;;;;;26.80;17.47;;;;;;;6.49;100.00;100972.95;4895766;57;1142844;-81
2024/02/14 22:21:13;;;;;;;23.02;16.12;;;;;;;6.50;100.00;100979.44;4794089;59;1142964;-81
2024/02/14 22:26:19;;;;;;;27.20;17.73;;;;;;;6.52;100.00;100980.67;4743648;59;1143051;-80
2024/02/14 22:31:28;;;;;;;28.90;18.80;;;;;;;6.53;100.00;100981.91;4701857;60;1142984;-80
2024/02/14 22:36:32;;;;;;;26.53;18.07;;;;;;;6.54;100.00;100983.61;4834770;58;1142958;-80
2024/02/14 22:41:40;;;;;;;27.40;17.83;;;;;;;6.58;100.00;100982.95;4869575;58;1143081;-80
2024/02/14 22:46:46;;;;;;;26.00;17.57;;;;;;;6.60;100.00;100985.88;4856544;58;1143305;-80